Time;durP1;ratioP1;P1;durP2;ratioP2;P2;SDS_P1;SDS_P2;PMS_P1;PMS_P2;Temp;Humidity;BMP_temperature;BMP_pressure;BME280_temperature;BME280_humidity;BME280_pressure;Samples;Min_cycle;Max_cycle;Signal;HPM_P1;HPM_P2
2023/10/23 00:01:11;;;;;;;2.10;0.70;;;;;;;15.19;72.50;98218.77;105076;1268;61541;-21
2023/10/23 00:03:40;;;;;;;2.80;1.00;;;;;;;15.03;73.26;98222.13;105144;1264;71017;-21
2023/10/23 00:06:08;;;;;;;2.90;0.70;;;;;;;14.86;74.32;98226.13;105145;1269;74321;-21
2023/10/23 00:08:36;;;;;;;0.60;0.60;;;;;;;15.24;73.36;98228.69;105097;1263;72630;-22
2023/10/23 00:11:04;;;;;;;1.20;0.70;;;;;;;15.53;72.05;98230.80;104939;1263;61202;-22
2023/10/23 00:13:32;;;;;;;0.80;0.60;;;;;;;15.52;71.77;98227.98;105081;1263;61129;-21
2023/10/23 00:23:43;;;;;;;2.30;1.00;;;;;;;14.91;74.51;98235.83;102637;1293;600136;-21
2023/10/23 00:26:11;;;;;;;0.60;0.60;;;;;;;15.35;73.55;98233.92;105045;1269;61145;-21
2023/10/23 00:28:42;;;;;;;1.30;0.70;;;;;;;15.63;72.03;98236.67;104844;1267;61101;-21
2023/10/23 00:31:09;;;;;;;1.10;0.90;;;;;;;15.59;71.81;98236.95;105085;1269;72339;-21
2023/10/23 00:33:37;;;;;;;1.40;0.80;;;;;;;15.38;72.54;98242.21;104890;1269;74052;-21
2023/10/23 00:36:05;;;;;;;0.70;0.70;;;;;;;15.15;73.26;98245.64;105068;1267;71453;-21
2023/10/23 00:38:33;;;;;;;1.50;0.90;;;;;;;14.78;74.30;98242.18;102816;1267;61272;-21
2023/10/23 00:41:01;;;;;;;1.90;0.70;;;;;;;14.44;74.15;98234.55;105073;1264;61179;-21
2023/10/23 00:43:28;;;;;;;0.90;0.80;;;;;;;14.19;73.09;98227.83;105053;1266;61265;-22
2023/10/23 00:45:58;;;;;;;0.80;0.60;;;;;;;14.35;72.34;98240.45;105034;1264;73080;-22
2023/10/23 00:56:09;;;;;;;1.70;0.60;;;;;;;14.01;72.76;98262.61;102731;1294;600075;-21
2023/10/23 00:58:38;;;;;;;0.60;0.60;;;;;;;13.76;73.92;98258.35;104793;1275;61199;-20
2023/10/23 01:01:06;;;;;;;0.50;0.50;;;;;;;13.69;74.27;98254.69;104818;1272;61216;-21
2023/10/23 01:11:16;;;;;;;0.80;0.70;;;;;;;14.06;72.83;98264.05;102598;1291;599923;-21
2023/10/23 01:21:25;;;;;;;1.70;0.60;;;;;;;14.01;73.76;98270.80;102707;1293;599928;-22
2023/10/23 01:23:52;;;;;;;0.70;0.60;;;;;;;14.34;72.20;98276.30;105038;1269;61190;-21
2023/10/23 01:26:20;;;;;;;0.90;0.50;;;;;;;14.39;71.83;98276.84;104819;1270;61119;-22
2023/10/23 01:28:48;;;;;;;1.00;0.70;;;;;;;14.27;71.88;98272.95;105035;1268;71165;-22
2023/10/23 01:31:16;;;;;;;2.40;0.80;;;;;;;14.14;72.66;98275.41;105012;1270;74294;-22
2023/10/23 01:33:44;;;;;;;0.70;0.60;;;;;;;13.90;73.24;98263.79;104873;1269;72674;-22
2023/10/23 01:36:12;;;;;;;0.50;0.40;;;;;;;13.78;73.83;98265.90;102861;1265;3147934;-22
2023/10/23 01:45:59;;;;;;;1.10;0.90;;;;;;;13.96;72.43;98280.96;103084;1286;599650;-21
2023/10/23 01:54:58;;;;;;;0.90;0.60;;;;;;;13.51;75.37;98293.08;102639;1294;600305;-21
2023/10/23 01:57:27;;;;;;;2.50;0.80;;;;;;;13.83;74.16;98290.77;104843;1267;61136;-21
2023/10/23 02:07:37;;;;;;;1.20;0.80;;;;;;;13.30;75.66;98284.02;102538;1291;600261;-21
2023/10/23 02:17:44;;;;;;;0.80;0.60;;;;;;;13.69;74.22;98298.94;102531;1292;600074;-21
2023/10/23 02:20:12;;;;;;;1.40;1.00;;;;;;;13.49;74.18;98294.84;104854;1272;61127;-21
2023/10/23 02:30:19;;;;;;;1.10;0.70;;;;;;;13.67;73.56;98311.59;102667;1291;600200;-21
2023/10/23 02:32:47;;;;;;;0.80;0.60;;;;;;;13.70;73.55;98317.41;104866;1267;61068;-21
2023/10/23 02:35:15;;;;;;;0.90;0.70;;;;;;;13.46;74.21;98324.80;104928;1270;61158;-21
2023/10/23 02:37:43;;;;;;;0.90;0.70;;;;;;;13.24;74.73;98317.61;104853;1270;71046;-23
2023/10/23 02:47:51;;;;;;;0.60;0.60;;;;;;;13.45;73.87;98333.45;102612;1292;600105;-21
2023/10/23 02:50:20;;;;;;;3.20;0.70;;;;;;;13.28;74.19;98334.14;104992;1269;61185;-21
2023/10/23 02:52:47;;;;;;;2.20;0.90;;;;;;;13.11;74.64;98332.73;104730;1275;61181;-21
2023/10/23 02:55:15;;;;;;;1.10;1.00;;;;;;;12.94;75.20;98331.30;104772;1267;72267;-21
2023/10/23 02:57:43;;;;;;;3.50;0.70;;;;;;;12.86;76.13;98334.72;105138;1260;74321;-22
2023/10/23 03:07:05;;;;;;;0.50;0.50;;;;;;;13.30;74.16;98343.14;102764;1291;600153;-23
2023/10/23 03:09:33;;;;;;;0.90;0.70;;;;;;;13.09;74.93;98349.08;105424;1264;61165;-22
2023/10/23 03:12:00;;;;;;;0.90;0.70;;;;;;;12.98;75.39;98347.09;105339;1264;61177;-22
2023/10/23 03:14:28;;;;;;;0.50;0.50;;;;;;;12.93;75.99;98348.86;105260;1257;71291;-22
2023/10/23 03:16:55;;;;;;;1.40;0.70;;;;;;;13.34;74.96;98350.11;105297;1257;72895;-22
2023/10/23 03:19:25;;;;;;;2.20;1.00;;;;;;;13.55;73.92;98354.74;105288;1258;71805;-22
2023/10/23 03:21:53;;;;;;;0.60;0.60;;;;;;;13.45;74.27;98356.23;103304;1259;3152633;-21
2023/10/23 03:24:21;;;;;;;0.80;0.70;;;;;;;13.29;74.45;98355.63;105571;1262;61096;-22
2023/10/23 03:34:30;;;;;;;0.80;0.80;;;;;;;13.15;75.26;98359.02;102658;1294;600125;-21
2023/10/23 03:36:58;;;;;;;2.60;0.90;;;;;;;13.17;75.04;98367.80;105086;1269;61177;-21
2023/10/23 03:39:26;;;;;;;1.20;0.90;;;;;;;13.06;75.18;98373.08;104832;1266;61082;-22
2023/10/23 03:41:55;;;;;;;1.80;0.90;;;;;;;12.88;76.01;98373.54;104836;1269;71027;-21
2023/10/23 03:44:23;;;;;;;1.40;1.00;;;;;;;12.69;76.32;98377.06;104884;1269;73166;-23
2023/10/23 03:46:51;;;;;;;3.60;0.70;;;;;;;12.51;77.57;98373.92;104882;1267;71737;-21
2023/10/23 03:49:18;;;;;;;1.00;0.70;;;;;;;12.89;76.45;98370.46;102644;1269;3349010;-23
2023/10/23 03:51:46;;;;;;;1.10;0.80;;;;;;;13.24;75.30;98366.26;105242;1266;61253;-23
2023/10/23 03:54:13;;;;;;;1.00;0.70;;;;;;;13.14;75.04;98370.60;105235;1265;70640;-23
2023/10/23 03:56:41;;;;;;;0.70;0.70;;;;;;;12.92;75.62;98368.10;105242;1260;74291;-22
2023/10/23 03:59:09;;;;;;;1.30;0.80;;;;;;;12.71;76.48;98374.17;105227;1261;73140;-22
2023/10/23 04:01:36;;;;;;;0.80;0.80;;;;;;;12.54;77.27;98375.75;105183;1266;61284;-22
2023/10/23 04:11:47;;;;;;;1.20;0.80;;;;;;;12.88;76.34;98369.02;102557;1291;600192;-22
2023/10/23 04:14:14;;;;;;;1.90;1.00;;;;;;;12.71;76.94;98371.63;105163;1269;61227;-22
2023/10/23 04:16:42;;;;;;;0.80;0.80;;;;;;;12.55;77.29;98375.44;105084;1268;61120;-22
2023/10/23 04:25:55;;;;;;;1.10;1.00;;;;;;;13.01;75.83;98380.29;102762;1295;600145;-21
2023/10/23 04:28:23;;;;;;;1.00;0.80;;;;;;;12.83;76.51;98382.89;104898;1269;61126;-21
2023/10/23 04:30:51;;;;;;;1.10;1.00;;;;;;;12.65;77.19;98387.91;104939;1270;61190;-21
2023/10/23 04:40:38;;;;;;;1.10;0.80;;;;;;;13.06;76.31;98394.00;102611;1294;601238;-21
2023/10/23 04:49:58;;;;;;;1.00;0.90;;;;;;;12.46;78.93;98414.11;102758;1294;599791;-23
2023/10/23 04:52:26;;;;;;;1.10;0.90;;;;;;;12.64;78.76;98417.40;105056;1270;61097;-21
2023/10/23 04:54:53;;;;;;;1.50;1.30;;;;;;;12.90;77.32;98417.44;105113;1264;61109;-21
2023/10/23 05:05:01;;;;;;;2.10;1.10;;;;;;;12.65;78.70;98436.08;102668;1293;600204;-21
2023/10/23 05:07:29;;;;;;;1.30;1.00;;;;;;;13.03;77.04;98440.34;104999;1267;61110;-23
2023/10/23 05:09:56;;;;;;;1.10;1.00;;;;;;;13.21;76.20;98437.67;105056;1267;61075;-23
2023/10/23 05:12:24;;;;;;;1.80;1.10;;;;;;;13.09;76.00;98445.69;104891;1270;70970;-21
2023/10/23 05:14:52;;;;;;;1.40;1.10;;;;;;;12.90;76.73;98450.16;104797;1267;74329;-21
2023/10/23 05:17:21;;;;;;;2.10;0.90;;;;;;;12.80;77.36;98453.25;104850;1270;71446;-22
2023/10/23 05:19:49;;;;;;;1.20;1.00;;;;;;;12.89;77.06;98461.56;102416;1265;3343559;-21
2023/10/23 05:22:16;;;;;;;2.30;0.90;;;;;;;13.10;75.93;98464.71;105011;1269;61171;-21
2023/10/23 05:24:47;;;;;;;1.80;1.10;;;;;;;13.12;75.64;98449.56;105145;1269;72200;-21
2023/10/23 05:27:17;;;;;;;1.30;0.80;;;;;;;13.04;76.12;98453.84;104773;1267;74133;-22
2023/10/23 05:29:44;;;;;;;1.40;1.20;;;;;;;12.88;76.58;98456.81;104872;1267;72642;-21
2023/10/23 05:39:56;;;;;;;5.40;1.50;;;;;;;13.26;74.99;98479.48;102592;1295;600237;-21
2023/10/23 05:42:23;;;;;;;1.90;1.10;;;;;;;13.06;74.83;98475.61;104835;1271;61270;-21
2023/10/23 05:44:51;;;;;;;4.00;1.00;;;;;;;12.85;75.42;98466.10;104844;1272;61125;-23
2023/10/23 05:47:19;;;;;;;3.40;0.90;;;;;;;12.74;76.31;98472.71;104843;1267;72183;-21
2023/10/23 05:49:46;;;;;;;1.10;1.00;;;;;;;13.05;75.30;98479.29;105040;1269;74322;-20
2023/10/23 05:52:14;;;;;;;1.70;0.80;;;;;;;13.32;74.36;98474.14;104842;1273;72655;-22
2023/10/23 05:54:41;;;;;;;1.30;1.00;;;;;;;13.31;74.56;98490.52;102767;1263;3214862;-22
2023/10/23 05:57:09;;;;;;;2.20;1.20;;;;;;;13.25;74.27;98481.31;105181;1267;61802;-23
2023/10/23 05:59:37;;;;;;;3.50;1.10;;;;;;;13.07;74.95;98482.08;105153;1268;72238;-23
2023/10/23 06:02:05;;;;;;;1.50;1.00;;;;;;;12.97;75.10;98480.36;105185;1266;74255;-21
2023/10/23 06:12:14;;;;;;;1.50;1.30;;;;;;;13.21;73.58;98501.42;102537;1292;599426;-21
2023/10/23 06:14:42;;;;;;;1.40;0.90;;;;;;;12.97;74.72;98503.70;104781;1267;61136;-21
2023/10/23 06:24:52;;;;;;;1.30;1.00;;;;;;;13.71;72.93;98514.35;102633;1293;600551;-21
2023/10/23 06:34:23;;;;;;;1.60;1.30;;;;;;;13.44;72.69;98513.30;102637;1293;600347;-21
2023/10/23 06:44:34;;;;;;;1.30;1.00;;;;;;;14.17;70.63;98532.14;102677;1295;599924;-21
2023/10/23 06:47:03;;;;;;;1.30;1.10;;;;;;;14.16;70.12;98518.16;104865;1267;61247;-21
2023/10/23 06:49:30;;;;;;;1.10;1.00;;;;;;;13.95;70.74;98524.17;104903;1269;61107;-21
2023/10/23 06:51:59;;;;;;;2.00;1.10;;;;;;;13.80;71.50;98536.00;104927;1264;71026;-23
2023/10/23 06:54:27;;;;;;;1.70;1.00;;;;;;;13.73;71.93;98535.29;104828;1271;73209;-21
2023/10/23 06:56:55;;;;;;;1.70;1.10;;;;;;;13.72;72.00;98531.72;104829;1272;72427;-22
2023/10/23 06:59:23;;;;;;;1.30;0.90;;;;;;;13.78;72.04;98545.25;102655;1269;3442240;-23
2023/10/23 07:01:50;;;;;;;1.50;1.20;;;;;;;14.05;71.03;98531.06;105161;1266;61170;-23
2023/10/23 07:04:18;;;;;;;1.50;1.20;;;;;;;14.25;70.01;98542.17;105059;1261;72300;-22
2023/10/23 07:06:46;;;;;;;2.40;1.40;;;;;;;14.27;69.30;98542.31;105161;1267;74313;-22
2023/10/23 07:09:13;;;;;;;3.90;1.20;;;;;;;14.15;70.02;98558.19;105153;1264;71204;-22
2023/10/23 07:19:19;;;;;;;3.20;1.30;;;;;;;13.75;71.75;98574.55;102724;1293;600324;-21
2023/10/23 07:21:47;;;;;;;1.90;1.20;;;;;;;13.73;70.75;98579.18;104871;1270;61089;-23
2023/10/23 07:24:14;;;;;;;1.70;1.30;;;;;;;13.75;70.30;98569.44;104957;1264;61140;-24
2023/10/23 07:26:42;;;;;;;1.70;1.00;;;;;;;13.86;70.05;98575.14;104873;1270;71979;-23
2023/10/23 07:29:10;;;;;;;2.70;1.40;;;;;;;14.24;68.05;98573.85;104864;1272;73141;-21
2023/10/23 07:39:18;;;;;;;2.00;1.30;;;;;;;14.27;67.60;98575.98;102708;1290;600350;-21
2023/10/23 07:41:46;;;;;;;4.30;1.30;;;;;;;14.27;67.63;98571.96;105037;1269;61196;-21
2023/10/23 07:44:13;;;;;;;1.30;1.20;;;;;;;14.11;68.32;98576.55;104898;1270;61205;-21
2023/10/23 07:46:43;;;;;;;1.20;1.10;;;;;;;14.14;68.24;98578.67;104867;1271;71467;-22
2023/10/23 07:49:12;;;;;;;1.90;1.40;;;;;;;14.30;67.22;98565.52;104884;1270;73081;-22
2023/10/23 07:59:23;;;;;;;3.00;1.50;;;;;;;14.20;67.30;98583.48;102643;1292;600154;-22
2023/10/23 08:01:52;;;;;;;3.40;1.30;;;;;;;14.23;68.02;98592.80;105315;1262;61064;-21
2023/10/23 08:04:20;;;;;;;2.20;1.60;;;;;;;14.30;67.62;98588.11;105279;1262;61052;-21
2023/10/23 08:06:48;;;;;;;1.70;1.40;;;;;;;14.22;68.31;98605.27;105198;1264;71008;-21
2023/10/23 08:09:16;;;;;;;2.40;1.60;;;;;;;14.29;67.83;98608.27;105210;1264;73078;-21
2023/10/23 08:11:44;;;;;;;2.80;1.50;;;;;;;14.31;67.23;98610.02;104813;1267;72671;-21
2023/10/23 08:21:50;;;;;;;3.20;2.00;;;;;;;14.21;67.14;98603.48;102661;1294;600077;-21
2023/10/23 08:24:18;;;;;;;3.90;2.10;;;;;;;14.27;67.43;98610.95;105063;1267;61174;-21
2023/10/23 08:26:46;;;;;;;2.70;1.70;;;;;;;14.37;67.41;98608.11;104870;1267;61141;-21
2023/10/23 08:29:15;;;;;;;3.00;1.40;;;;;;;14.48;66.45;98614.58;104949;1264;72280;-21
